Time;durP1;ratioP1;P1;durP2;ratioP2;P2;SDS_P1;SDS_P2;PMS_P1;PMS_P2;Temp;Humidity;BMP_temperature;BMP_pressure;BME280_temperature;BME280_humidity;BME280_pressure;Samples;Min_cycle;Max_cycle;Signal;HPM_P1;HPM_P2
2023/11/27 00:01:20;;;;;;;8.65;7.05;;;;;;;;;;5095591;28;20268;-60
2023/11/27 00:03:48;;;;;;;8.10;7.07;;;;;;;;;;5095527;28;20189;-60
2023/11/27 00:06:15;;;;;;;8.43;6.95;;;;;;;;;;5095379;28;20275;-61
2023/11/27 00:08:42;;;;;;;9.38;7.50;;;;;;;;;;5095697;28;20271;-60
2023/11/27 00:11:09;;;;;;;14.40;9.88;;;;;;;;;;5095483;28;20279;-60
2023/11/27 00:13:36;;;;;;;12.90;8.70;;;;;;;;;;5095407;28;20269;-60
2023/11/27 00:16:03;;;;;;;12.93;9.45;;;;;;;;;;5095102;28;20714;-61
2023/11/27 00:18:31;;;;;;;10.57;7.80;;;;;;;;;;5095197;28;20271;-60
2023/11/27 00:20:58;;;;;;;13.45;10.88;;;;;;;;;;5094824;28;20188;-60
2023/11/27 00:23:25;;;;;;;17.00;11.27;;;;;;;;;;5095317;28;20616;-60
2023/11/27 00:25:52;;;;;;;14.90;11.95;;;;;;;;;;5095225;28;20242;-60
2023/11/27 00:28:19;;;;;;;15.43;11.02;;;;;;;;;;5095111;28;20193;-60
2023/11/27 00:30:46;;;;;;;11.18;8.07;;;;;;;;;;5094973;28;20283;-60
2023/11/27 00:33:13;;;;;;;8.95;7.03;;;;;;;;;;5094883;28;20189;-60
2023/11/27 00:35:42;;;;;;;8.82;7.93;;;;;;;;;;5094703;28;20307;-60
2023/11/27 00:38:09;;;;;;;9.10;8.20;;;;;;;;;;5095269;28;20193;-60
2023/11/27 00:40:37;;;;;;;8.98;8.07;;;;;;;;;;5094851;28;20285;-60
2023/11/27 00:43:05;;;;;;;12.05;8.25;;;;;;;;;;5094774;28;20239;-60
2023/11/27 00:45:32;;;;;;;11.93;9.77;;;;;;;;;;5094747;28;20189;-61
2023/11/27 00:48:00;;;;;;;9.93;8.93;;;;;;;;;;5094593;28;20185;-60
2023/11/27 00:50:26;;;;;;;11.32;8.95;;;;;;;;;;5094828;28;20188;-60
2023/11/27 00:52:55;;;;;;;9.35;7.68;;;;;;;;;;5094644;28;20192;-61
2023/11/27 00:55:22;;;;;;;8.18;7.30;;;;;;;;;;5094777;28;20216;-61
2023/11/27 00:57:48;;;;;;;9.07;7.28;;;;;;;;;;5094462;28;20279;-60
2023/11/27 01:00:17;;;;;;;8.27;6.68;;;;;;;;;;5094398;28;20219;-60
2023/11/27 01:02:45;;;;;;;7.65;6.22;;;;;;;;;;5094720;28;20275;-60
2023/11/27 01:05:14;;;;;;;7.97;7.18;;;;;;;;;;5094460;28;20200;-61
2023/11/27 01:07:41;;;;;;;10.57;8.38;;;;;;;;;;5094345;28;20280;-61
2023/11/27 01:10:09;;;;;;;10.00;7.63;;;;;;;;;;5094257;28;20280;-60
2023/11/27 01:12:38;;;;;;;7.30;6.45;;;;;;;;;;5094192;28;20192;-60
2023/11/27 01:15:06;;;;;;;6.57;6.07;;;;;;;;;;5093809;28;20216;-61
2023/11/27 01:17:33;;;;;;;8.80;6.30;;;;;;;;;;5094406;28;20188;-60
2023/11/27 01:20:00;;;;;;;6.43;5.82;;;;;;;;;;5094263;28;20250;-60
2023/11/27 01:22:26;;;;;;;7.22;6.00;;;;;;;;;;5094344;28;20276;-60
2023/11/27 01:24:53;;;;;;;7.70;6.78;;;;;;;;;;5094037;28;20195;-64
2023/11/27 01:27:22;;;;;;;11.60;5.75;;;;;;;;;;5093914;28;20555;-60
2023/11/27 01:29:48;;;;;;;10.13;6.82;;;;;;;;;;5093802;28;20198;-61
2023/11/27 01:32:15;;;;;;;7.57;6.90;;;;;;;;;;5093670;28;20230;-60
2023/11/27 01:34:42;;;;;;;8.68;6.95;;;;;;;;;;5093511;28;20925;-61
2023/11/27 01:37:09;;;;;;;6.97;6.18;;;;;;;;;;5093858;28;20271;-60
2023/11/27 01:39:36;;;;;;;7.05;6.30;;;;;;;;;;5093701;28;20713;-61
2023/11/27 01:42:04;;;;;;;8.88;7.13;;;;;;;;;;5093514;28;20200;-61
2023/11/27 01:44:32;;;;;;;6.60;5.90;;;;;;;;;;5094167;28;20279;-60
2023/11/27 01:47:00;;;;;;;6.30;5.68;;;;;;;;;;5093750;28;20275;-60
2023/11/27 01:49:27;;;;;;;7.00;6.30;;;;;;;;;;5093748;28;20662;-60
2023/11/27 01:51:54;;;;;;;6.28;5.60;;;;;;;;;;5093527;28;20185;-60
2023/11/27 01:54:21;;;;;;;7.18;5.70;;;;;;;;;;5093563;28;20220;-61
2023/11/27 01:56:49;;;;;;;8.07;6.50;;;;;;;;;;5093326;28;20238;-61
2023/11/27 01:59:16;;;;;;;7.10;5.90;;;;;;;;;;5093620;28;20246;-61
2023/11/27 02:01:45;;;;;;;6.90;5.95;;;;;;;;;;5093482;28;20199;-61
2023/11/27 02:04:12;;;;;;;8.00;6.25;;;;;;;;;;5093306;28;20674;-61
2023/11/27 02:06:39;;;;;;;6.50;5.90;;;;;;;;;;5093319;28;20279;-60
2023/11/27 02:09:06;;;;;;;7.60;5.95;;;;;;;;;;5093233;28;20275;-61
2023/11/27 02:11:33;;;;;;;7.28;6.57;;;;;;;;;;5093477;28;20224;-60
2023/11/27 02:14:00;;;;;;;6.80;6.10;;;;;;;;;;5093393;28;20188;-60
2023/11/27 02:16:28;;;;;;;7.55;6.72;;;;;;;;;;5092936;28;20239;-61
2023/11/27 02:18:56;;;;;;;5.78;5.20;;;;;;;;;;5093366;28;20196;-61
2023/11/27 02:21:23;;;;;;;5.38;4.88;;;;;;;;;;5093250;28;20188;-60
2023/11/27 02:23:51;;;;;;;6.45;5.18;;;;;;;;;;5093066;28;20234;-60
2023/11/27 02:26:18;;;;;;;7.53;6.10;;;;;;;;;;5093242;28;20616;-60
2023/11/27 02:28:45;;;;;;;6.00;5.50;;;;;;;;;;5093193;28;20199;-61
2023/11/27 02:31:12;;;;;;;6.50;5.90;;;;;;;;;;5093019;28;20730;-60
2023/11/27 02:33:39;;;;;;;7.53;6.55;;;;;;;;;;5093034;28;20275;-60
2023/11/27 02:36:06;;;;;;;7.18;6.07;;;;;;;;;;5092925;28;20224;-60
2023/11/27 02:38:33;;;;;;;8.10;5.88;;;;;;;;;;5093091;28;20706;-61
2023/11/27 02:41:02;;;;;;;7.20;5.70;;;;;;;;;;5092869;28;20676;-61
2023/11/27 02:43:29;;;;;;;5.75;5.25;;;;;;;;;;5093016;28;20309;-61
2023/11/27 02:45:56;;;;;;;7.82;5.82;;;;;;;;;;5096897;28;20189;-60
2023/11/27 02:48:23;;;;;;;7.80;5.28;;;;;;;;;;5097058;28;20686;-60
2023/11/27 02:50:50;;;;;;;6.00;5.40;;;;;;;;;;5096913;28;20200;-61
2023/11/27 02:53:18;;;;;;;8.00;6.00;;;;;;;;;;5096835;28;20731;-61
2023/11/27 02:55:45;;;;;;;6.88;6.07;;;;;;;;;;5096821;28;20224;-60
2023/11/27 02:58:13;;;;;;;7.90;5.32;;;;;;;;;;5096912;28;20185;-60
2023/11/27 03:00:40;;;;;;;7.03;5.85;;;;;;;;;;5096844;28;20284;-61
2023/11/27 03:03:07;;;;;;;8.05;5.60;;;;;;;;;;5096692;28;20618;-60
2023/11/27 03:05:34;;;;;;;6.85;5.97;;;;;;;;;;5096591;28;20283;-60
2023/11/27 03:08:01;;;;;;;5.57;5.05;;;;;;;;;;5096742;28;20271;-60
2023/11/27 03:10:28;;;;;;;6.10;5.50;;;;;;;;;;5096500;28;20703;-60
2023/11/27 03:12:55;;;;;;;6.35;5.18;;;;;;;;;;5096638;28;20193;-60
2023/11/27 03:15:23;;;;;;;5.88;5.38;;;;;;;;;;5096286;28;20311;-61
2023/11/27 03:17:50;;;;;;;6.28;5.65;;;;;;;;;;5096433;28;20283;-61
2023/11/27 03:20:17;;;;;;;6.35;5.75;;;;;;;;;;5096313;28;20275;-60
2023/11/27 03:22:44;;;;;;;6.28;4.95;;;;;;;;;;5096508;28;20654;-61
2023/11/27 03:25:11;;;;;;;6.30;5.38;;;;;;;;;;5096375;28;20280;-60
2023/11/27 03:27:38;;;;;;;6.10;4.88;;;;;;;;;;5096298;28;20195;-61
2023/11/27 03:30:06;;;;;;;6.20;5.60;;;;;;;;;;5096197;28;20218;-61
2023/11/27 03:32:34;;;;;;;6.53;5.82;;;;;;;;;;5096054;28;20185;-61
2023/11/27 03:35:01;;;;;;;5.70;5.13;;;;;;;;;;5096311;28;20616;-61
2023/11/27 03:37:29;;;;;;;5.40;4.90;;;;;;;;;;5096100;28;20227;-60
2023/11/27 03:39:55;;;;;;;7.35;5.50;;;;;;;;;;5096045;28;20188;-60
2023/11/27 03:42:22;;;;;;;6.28;5.65;;;;;;;;;;5095999;28;20275;-60
2023/11/27 03:44:49;;;;;;;7.35;6.35;;;;;;;;;;5095939;28;20592;-61
2023/11/27 03:47:16;;;;;;;7.35;5.65;;;;;;;;;;5095778;28;20285;-61
2023/11/27 03:49:44;;;;;;;7.18;5.25;;;;;;;;;;5095745;28;20199;-60
2023/11/27 03:52:11;;;;;;;6.10;4.93;;;;;;;;;;5095915;28;20224;-60
2023/11/27 03:54:38;;;;;;;6.97;5.78;;;;;;;;;;5095592;28;20188;-61
2023/11/27 03:57:05;;;;;;;5.60;5.07;;;;;;;;;;5094939;28;20261;-60
2023/11/27 03:59:32;;;;;;;5.18;4.70;;;;;;;;;;5095590;28;20275;-60
2023/11/27 04:02:00;;;;;;;7.13;5.75;;;;;;;;;;5095780;28;20283;-60
2023/11/27 04:04:27;;;;;;;6.90;6.20;;;;;;;;;;5095413;28;20189;-60
2023/11/27 04:06:56;;;;;;;6.07;5.50;;;;;;;;;;5095583;28;20271;-61
2023/11/27 04:09:23;;;;;;;6.95;5.90;;;;;;;;;;5095448;28;20211;-60
2023/11/27 04:11:51;;;;;;;5.30;4.90;;;;;;;;;;5095345;28;20279;-60
2023/11/27 04:14:18;;;;;;;5.95;5.35;;;;;;;;;;5095271;28;20215;-60
2023/11/27 04:16:44;;;;;;;7.30;5.03;;;;;;;;;;5095277;28;20629;-60
2023/11/27 04:19:11;;;;;;;7.40;5.25;;;;;;;;;;5095317;28;20275;-60
2023/11/27 04:21:38;;;;;;;7.15;5.32;;;;;;;;;;5095305;28;20272;-60
2023/11/27 04:24:07;;;;;;;8.90;5.50;;;;;;;;;;5095183;28;20184;-61
2023/11/27 04:26:34;;;;;;;6.25;5.25;;;;;;;;;;5095574;28;20275;-60
2023/11/27 04:29:01;;;;;;;8.15;4.30;;;;;;;;;;5094963;28;20279;-60
2023/11/27 04:31:28;;;;;;;5.68;5.25;;;;;;;;;;5095144;28;20196;-60
2023/11/27 04:33:55;;;;;;;8.48;5.35;;;;;;;;;;5095013;28;20192;-61
2023/11/27 04:36:23;;;;;;;5.55;4.80;;;;;;;;;;5094853;28;20223;-60
2023/11/27 04:38:50;;;;;;;5.68;5.18;;;;;;;;;;5094880;28;20227;-61
2023/11/27 04:41:19;;;;;;;5.22;4.72;;;;;;;;;;5094678;28;20197;-61
2023/11/27 04:43:46;;;;;;;5.35;4.85;;;;;;;;;;5094862;28;20246;-60
2023/11/27 04:46:13;;;;;;;7.00;5.00;;;;;;;;;;5094863;28;20300;-61
2023/11/27 04:48:39;;;;;;;12.60;5.82;;;;;;;;;;5094636;28;20275;-61
2023/11/27 04:51:07;;;;;;;6.18;5.57;;;;;;;;;;5094634;28;20195;-61
2023/11/27 04:53:34;;;;;;;6.05;5.45;;;;;;;;;;5094895;28;20442;-60
2023/11/27 04:56:01;;;;;;;6.13;4.45;;;;;;;;;;5094416;28;20545;-60
2023/11/27 04:58:29;;;;;;;6.20;4.88;;;;;;;;;;5094645;28;20279;-60
2023/11/27 05:00:58;;;;;;;11.40;6.57;;;;;;;;;;5094514;28;20279;-60
2023/11/27 05:03:25;;;;;;;6.93;5.15;;;;;;;;;;5094463;28;20193;-60
2023/11/27 05:05:53;;;;;;;5.90;4.70;;;;;;;;;;5094306;28;20616;-60
2023/11/27 05:08:20;;;;;;;6.38;5.43;;;;;;;;;;5093184;28;20218;-60
2023/11/27 05:10:47;;;;;;;6.18;5.55;;;;;;;;;;5094336;28;20192;-61
2023/11/27 05:13:14;;;;;;;7.07;5.70;;;;;;;;;;5094314;28;20267;-61
2023/11/27 05:15:42;;;;;;;6.28;5.38;;;;;;;;;;5094112;28;20409;-60
2023/11/27 05:18:09;;;;;;;7.57;5.10;;;;;;;;;;5094136;28;20188;-60
2023/11/27 05:20:36;;;;;;;7.38;4.53;;;;;;;;;;5094105;28;20281;-60
2023/11/27 05:23:03;;;;;;;5.60;5.10;;;;;;;;;;5094422;28;20189;-60
2023/11/27 05:25:30;;;;;;;6.10;5.60;;;;;;;;;;5094165;28;20295;-60
2023/11/27 05:27:57;;;;;;;10.48;5.07;;;;;;;;;;5094168;28;20287;-60
2023/11/27 05:30:24;;;;;;;6.05;5.07;;;;;;;;;;5093997;28;20219;-60
2023/11/27 05:32:52;;;;;;;5.55;5.05;;;;;;;;;;5093913;28;20238;-60
2023/11/27 05:35:19;;;;;;;5.88;5.00;;;;;;;;;;5093614;28;20188;-60
2023/11/27 05:37:46;;;;;;;5.63;5.00;;;;;;;;;;5093885;28;20220;-60
2023/11/27 05:40:15;;;;;;;7.55;4.85;;;;;;;;;;5094104;28;20227;-60
2023/11/27 05:42:43;;;;;;;7.72;5.85;;;;;;;;;;5093687;28;20195;-60
2023/11/27 05:45:10;;;;;;;5.97;5.47;;;;;;;;;;5093672;28;20192;-61
2023/11/27 05:47:38;;;;;;;5.20;4.80;;;;;;;;;;5093790;28;20198;-60
2023/11/27 05:50:09;;;;;;;5.95;5.38;;;;;;;;;;5093322;28;20653;-60
2023/11/27 05:52:36;;;;;;;6.60;4.95;;;;;;;;;;5093601;28;20193;-61
2023/11/27 05:55:03;;;;;;;6.32;4.82;;;;;;;;;;5093468;28;20238;-60
2023/11/27 05:57:30;;;;;;;7.07;5.22;;;;;;;;;;5093363;28;20303;-60
2023/11/27 05:59:57;;;;;;;5.90;5.07;;;;;;;;;;5093381;28;20211;-60
2023/11/27 06:02:24;;;;;;;5.32;4.85;;;;;;;;;;5093238;28;20592;-60
2023/11/27 06:04:51;;;;;;;6.57;5.18;;;;;;;;;;5093196;28;20699;-61
2023/11/27 06:07:19;;;;;;;6.25;5.65;;;;;;;;;;5093331;28;20184;-60
2023/11/27 06:09:46;;;;;;;6.40;5.68;;;;;;;;;;5093222;28;20202;-60
2023/11/27 06:12:13;;;;;;;8.38;5.13;;;;;;;;;;5093141;28;20188;-60
2023/11/27 06:14:40;;;;;;;5.65;5.00;;;;;;;;;;5093100;28;20730;-60
2023/11/27 06:17:08;;;;;;;5.50;5.00;;;;;;;;;;5092716;28;20315;-60
2023/11/27 06:19:35;;;;;;;5.15;4.70;;;;;;;;;;5092908;28;20193;-60
2023/11/27 06:22:02;;;;;;;4.22;3.83;;;;;;;;;;5093061;28;20188;-60
2023/11/27 06:24:30;;;;;;;5.88;5.18;;;;;;;;;;5093006;28;20220;-60
2023/11/27 06:26:57;;;;;;;5.10;4.60;;;;;;;;;;5092702;28;20196;-60
2023/11/27 06:29:24;;;;;;;8.52;7.72;;;;;;;;;;5092798;28;20220;-60
2023/11/27 06:31:51;;;;;;;5.43;4.68;;;;;;;;;;5092717;28;20189;-60
2023/11/27 06:34:18;;;;;;;6.97;5.13;;;;;;;;;;5092977;28;20279;-60
2023/11/27 06:36:44;;;;;;;5.15;4.60;;;;;;;;;;5092811;28;20315;-61
2023/11/27 06:39:11;;;;;;;6.40;5.80;;;;;;;;;;5092844;28;20279;-60
2023/11/27 06:41:40;;;;;;;9.98;6.30;;;;;;;;;;5093044;28;20279;-60
2023/11/27 06:44:09;;;;;;;8.35;7.57;;;;;;;;;;5092726;28;20189;-61
2023/11/27 06:46:36;;;;;;;7.53;6.18;;;;;;;;;;5092669;28;20302;-60
2023/11/27 06:49:05;;;;;;;9.65;7.43;;;;;;;;;;5092894;28;20279;-60
2023/11/27 06:51:32;;;;;;;6.43;5.93;;;;;;;;;;5092765;28;20199;-60
2023/11/27 06:53:59;;;;;;;7.65;6.53;;;;;;;;;;5093041;28;20235;-61
2023/11/27 06:56:29;;;;;;;9.73;8.30;;;;;;;;;;5092865;28;20309;-61
2023/11/27 06:58:57;;;;;;;10.88;7.97;;;;;;;;;;5092405;28;20235;-60
2023/11/27 07:01:28;;;;;;;8.60;6.80;;;;;;;;;;5092628;28;20646;-60
2023/11/27 07:03:55;;;;;;;9.75;7.53;;;;;;;;;;5092491;28;20211;-60
2023/11/27 07:06:22;;;;;;;17.33;10.70;;;;;;;;;;5092032;28;20279;-61
2023/11/27 07:08:49;;;;;;;7.13;6.25;;;;;;;;;;5091980;28;20505;-60
2023/11/27 07:11:16;;;;;;;10.20;7.25;;;;;;;;;;5092524;28;20260;-60
2023/11/27 07:13:43;;;;;;;6.57;5.68;;;;;;;;;;5092633;28;20585;-60
2023/11/27 07:16:11;;;;;;;6.97;6.28;;;;;;;;;;5092449;28;20572;-61
2023/11/27 07:18:38;;;;;;;7.43;6.70;;;;;;;;;;5092305;28;20231;-60
2023/11/27 07:21:05;;;;;;;10.13;7.00;;;;;;;;;;5092543;28;20185;-60
2023/11/27 07:23:32;;;;;;;7.35;5.80;;;;;;;;;;5092454;28;20246;-60
2023/11/27 07:25:59;;;;;;;6.70;5.93;;;;;;;;;;5092270;28;20195;-60
2023/11/27 07:28:26;;;;;;;5.93;5.32;;;;;;;;;;5092432;28;20196;-60
2023/11/27 07:30:53;;;;;;;8.75;5.82;;;;;;;;;;5092870;28;20624;-60
2023/11/27 07:33:22;;;;;;;8.93;5.97;;;;;;;;;;5096063;28;20215;-60
2023/11/27 07:35:50;;;;;;;7.22;5.18;;;;;;;;;;5096001;28;20309;-60
2023/11/27 07:38:17;;;;;;;5.47;5.03;;;;;;;;;;5095752;28;20754;-60
2023/11/27 07:40:43;;;;;;;7.65;4.95;;;;;;;;;;5096048;28;20279;-60
2023/11/27 07:43:11;;;;;;;6.85;4.90;;;;;;;;;;5095956;28;20298;-61
2023/11/27 07:45:38;;;;;;;8.05;6.47;;;;;;;;;;5095932;28;20192;-60
2023/11/27 07:48:05;;;;;;;6.65;4.90;;;;;;;;;;5095825;28;20227;-60
2023/11/27 07:50:35;;;;;;;6.22;5.20;;;;;;;;;;5095725;28;20275;-60
2023/11/27 07:53:03;;;;;;;5.30;4.80;;;;;;;;;;5095559;28;20213;-60
2023/11/27 07:55:32;;;;;;;6.65;5.68;;;;;;;;;;5095707;28;20234;-60
2023/11/27 07:57:59;;;;;;;5.60;5.10;;;;;;;;;;5095694;28;20216;-60
2023/11/27 08:00:26;;;;;;;6.68;5.57;;;;;;;;;;5095588;28;20276;-60
2023/11/27 08:02:53;;;;;;;6.25;5.65;;;;;;;;;;5095561;28;20199;-61
2023/11/27 08:05:22;;;;;;;5.95;5.40;;;;;;;;;;5095409;28;20191;-60
2023/11/27 08:07:50;;;;;;;6.22;5.38;;;;;;;;;;5095562;28;20283;-60
2023/11/27 08:10:17;;;;;;;5.72;5.20;;;;;;;;;;5095294;28;20279;-60
2023/11/27 08:12:44;;;;;;;5.78;5.28;;;;;;;;;;5095366;28;20624;-60
